Keswick, IA (50136)

7:17 PM CDT on August 29, 2015 (GMT -0500)
Dietze Weather Station | | Change Station
CLOSE
Current Station
Personal Weather Station
Location: Millersburg, IA
Elevation: 883 ft
Nearby Weather Stations

Elev 883 ft 41.57 °N, 92.16 °W | Updated 3 seconds ago

Overcast
Overcast
71.1 °F
Feels Like 71.1 °F
N
4.0
Wind Variable Wind from North
Gusts 4.9 mph

Today
High -- | Low -- °F
--% Chance of Precip.
Yesterday
High -- | Low -- °F
Precip. -- in
6:31 AM 7:47 PM
Full, 100% visible
Pressure 30.02 in
Visibility 10.0 miles
Clouds Mostly Cloudy 1800 ft
Mostly Cloudy 2400 ft
Overcast 3200 ft
Dew Point 69 °F
Humidity 93%
Rainfall 0.00 in
Snow Depth Not available.
UV 0.0 out of 12
Pollen 5.50 out of 12
Air Quality Not available.
Flu Activity Not available.
METAR KOOA 292355Z AUTO 03003KT 10SM BKN018 BKN024 OVC032 21/19 A3002 RMK AO2 T02130190 10233 20213
Pressure 30.02 in
Visibility 10.0 miles
Clouds Mostly Cloudy 1800 ft
Mostly Cloudy 2400 ft
Overcast 3200 ft
Dew Point 69 °F
Humidity 93%
Rainfall 0.00 in
Snow Depth Not available.
UV 0.0 out of 12
Pollen 5.50 out of 12
Air Quality Not available.
Flu Activity Not available.
METAR KOOA 292355Z AUTO 03003KT 10SM BKN018 BKN024 OVC032 21/19 A3002 RMK AO2 T02130190 10233 20213

10-Day Weather Forecast

×

Almanac

Astronomy

Aug. 29, 2015 Rise Set
Actual Time
Civil Twilight
Nautical Twilight
Astronomical Twilight
Moon
Length of Visible Light
Length of Day
Tomorrow will be .
, % of the Moon is Illuminated

Today's Extremes

State Highs State Lows

Community

WunderPhotos

Upload Photos

1,850,790 photos uploaded!

WunderBlogs® & News

Nearby

Air Quality

  Air Quality AQ Index Pollutant
Not available.

Snow Depth

Station Depth Elevation

Earthquake Activity

City Distance Mag. Time & Date
Minimum magnitude displayed is 2.5.

Coastal Water Temperatures

Place Temperature

Stations

Nearby Weather Stations

Station Location Temp. Windchill Dew Point Humidity Wind Precip. Elev Updated Type